Terminal Aerodrome Forecast
Issued by NWS Cleveland, OH

Home | Current Version | Previous Version | Graphics & Text | Print | Product List | Glossary On
Versions: 1 2 3 4 5 6 7 8 9 10 11 12 13 14
000
FTUS41 KCLE 162324
TAFERI
TAF
KERI 162324Z 1700/1724 06005KT P6SM SKC
     FM170300 12005KT P6SM FEW250
     FM171000 14009KT P6SM SCT200
     FM171200 15008KT P6SM BKN200
     FM172000 18009KT P6SM VCTS SCT035CB OVC050=

USA.gov is the U.S. government's official web portal to all federal, state and local government web resources and services.